createdAt,value
2019-04-30T00:00:10.427Z,16.38
2019-04-30T00:01:07.319Z,16.25
2019-04-30T00:02:05.770Z,16.19
2019-04-30T00:03:06.806Z,16.62
2019-04-30T00:04:05.885Z,16.50
2019-04-30T00:05:05.714Z,16.25
2019-04-30T00:06:07.453Z,16.12
2019-04-30T00:07:10.139Z,16.06
2019-04-30T00:08:05.949Z,16.25
2019-04-30T00:09:09.625Z,16.50
2019-04-30T00:10:06.153Z,16.75
2019-04-30T00:11:06.005Z,16.62
2019-04-30T00:12:05.718Z,16.50
2019-04-30T00:13:06.125Z,16.38
2019-04-30T00:14:05.777Z,16.50
2019-04-30T00:15:06.180Z,16.38
2019-04-30T00:16:05.713Z,16.31
2019-04-30T00:17:06.306Z,16.06
2019-04-30T00:18:05.741Z,16.25
2019-04-30T00:19:06.122Z,16.19
2019-04-30T00:20:05.734Z,16.12
2019-04-30T00:21:09.870Z,16.00
2019-04-30T00:22:05.777Z,16.25
2019-04-30T00:23:05.741Z,16.44
2019-04-30T00:24:10.190Z,16.38
2019-04-30T00:25:05.976Z,16.50
2019-04-30T00:26:10.209Z,16.50
2019-04-30T00:27:05.998Z,16.69
2019-04-30T00:28:08.666Z,16.69
2019-04-30T00:29:05.702Z,16.88
2019-04-30T00:30:08.881Z,16.88
2019-04-30T00:31:05.774Z,16.88
2019-04-30T00:32:07.852Z,17.06
2019-04-30T00:33:05.858Z,17.00
2019-04-30T00:34:05.725Z,16.69
2019-04-30T00:35:07.149Z,16.56
2019-04-30T00:36:05.768Z,16.62
2019-04-30T00:37:07.142Z,16.50
2019-04-30T00:38:05.720Z,16.56
2019-04-30T00:39:07.056Z,16.50
2019-04-30T00:40:05.893Z,16.81
2019-04-30T00:41:06.674Z,16.81
2019-04-30T00:42:05.701Z,16.69
2019-04-30T00:43:10.369Z,16.38
2019-04-30T00:44:05.723Z,16.50
2019-04-30T00:45:09.478Z,16.62
2019-04-30T00:46:05.717Z,16.56
2019-04-30T00:47:08.197Z,16.81
2019-04-30T00:48:06.055Z,17.12
2019-04-30T00:49:09.720Z,17.12
2019-04-30T00:50:05.735Z,17.19
2019-04-30T00:51:07.344Z,17.06
2019-04-30T00:52:05.740Z,16.88
2019-04-30T00:53:12.113Z,16.94
2019-04-30T00:54:05.797Z,16.94
2019-04-30T00:55:08.989Z,16.50
2019-04-30T00:56:05.838Z,16.75
2019-04-30T00:57:07.565Z,16.75
2019-04-30T00:58:05.962Z,16.50
2019-04-30T00:59:06.919Z,16.50
2019-04-30T01:00:05.897Z,16.62
2019-04-30T01:01:08.105Z,16.56
2019-04-30T01:02:06.092Z,16.62
2019-04-30T01:03:09.106Z,16.75
2019-04-30T01:04:05.741Z,16.69
2019-04-30T01:05:08.978Z,16.62
2019-04-30T01:06:05.748Z,16.44
2019-04-30T01:07:08.560Z,16.44
2019-04-30T01:08:07.069Z,16.25
2019-04-30T01:09:08.566Z,16.00
2019-04-30T01:10:05.769Z,15.81
2019-04-30T01:11:09.308Z,15.62
2019-04-30T01:12:05.772Z,15.75
2019-04-30T01:13:07.890Z,15.56
2019-04-30T01:14:05.739Z,15.50
2019-04-30T01:15:06.369Z,15.56
2019-04-30T01:16:05.756Z,15.38
2019-04-30T01:17:08.697Z,15.62
2019-04-30T01:18:05.762Z,15.94
2019-04-30T01:19:09.379Z,15.69
2019-04-30T01:20:05.836Z,15.62
2019-04-30T01:21:07.748Z,15.38
2019-04-30T01:22:05.776Z,15.25
2019-04-30T01:23:07.887Z,15.12
2019-04-30T01:24:05.787Z,15.31
2019-04-30T01:25:08.771Z,15.56
2019-04-30T01:26:05.741Z,15.69
2019-04-30T01:27:08.337Z,15.56
2019-04-30T01:28:05.757Z,15.56
2019-04-30T01:29:05.796Z,15.50
2019-04-30T01:30:05.755Z,15.56
2019-04-30T01:31:05.749Z,15.62
2019-04-30T01:32:10.317Z,15.56
2019-04-30T01:33:05.798Z,15.62
2019-04-30T01:34:10.227Z,15.62
2019-04-30T01:35:05.775Z,15.62
2019-04-30T01:36:09.364Z,15.50
2019-04-30T01:37:05.759Z,15.50
2019-04-30T01:38:09.046Z,15.56
2019-04-30T01:39:05.773Z,15.44
2019-04-30T01:40:08.016Z,15.56
2019-04-30T01:41:05.776Z,15.62
2019-04-30T01:42:07.766Z,15.69
2019-04-30T01:43:05.965Z,15.75
2019-04-30T01:44:08.538Z,15.62
2019-04-30T01:45:05.789Z,15.62
2019-04-30T01:46:09.163Z,15.62
2019-04-30T01:47:05.765Z,15.62
2019-04-30T01:48:10.602Z,15.62
2019-04-30T01:49:05.805Z,15.75
2019-04-30T01:50:05.790Z,15.75
2019-04-30T01:51:05.786Z,15.94
2019-04-30T01:52:05.790Z,16.06
2019-04-30T01:53:09.547Z,15.75
2019-04-30T01:54:05.771Z,15.44
2019-04-30T01:55:05.786Z,15.19
2019-04-30T01:56:05.794Z,15.06
2019-04-30T01:57:05.801Z,14.88
2019-04-30T01:58:06.685Z,14.88
2019-04-30T01:59:05.836Z,14.81
2019-04-30T02:00:05.785Z,14.75
2019-04-30T02:01:05.784Z,14.69
2019-04-30T02:02:05.826Z,14.75
2019-04-30T02:03:11.171Z,14.81
2019-04-30T02:04:05.819Z,15.06
2019-04-30T02:05:05.834Z,15.62
2019-04-30T02:06:05.804Z,16.00
2019-04-30T02:07:05.802Z,16.06
2019-04-30T02:08:05.804Z,16.12
2019-04-30T02:09:05.811Z,15.75
2019-04-30T02:10:05.790Z,16.00
2019-04-30T02:11:05.792Z,16.25
2019-04-30T02:12:06.124Z,16.12
2019-04-30T02:13:05.798Z,16.19
2019-04-30T02:14:06.679Z,16.06
2019-04-30T02:15:05.829Z,16.12
2019-04-30T02:16:05.796Z,15.81
2019-04-30T02:17:05.816Z,15.69
2019-04-30T02:18:05.809Z,15.62
2019-04-30T02:19:05.793Z,15.31
2019-04-30T02:20:05.805Z,15.50
2019-04-30T02:21:05.825Z,15.44
2019-04-30T02:22:05.819Z,15.25
2019-04-30T02:23:05.813Z,15.31
2019-04-30T02:24:05.812Z,15.00
2019-04-30T02:25:05.810Z,15.00
2019-04-30T02:26:05.815Z,15.25
2019-04-30T02:27:05.841Z,15.19
2019-04-30T02:28:05.835Z,15.12
2019-04-30T02:29:05.807Z,15.12
2019-04-30T02:30:05.888Z,14.75
2019-04-30T02:31:09.059Z,14.50
2019-04-30T02:32:05.854Z,14.31
2019-04-30T02:33:05.829Z,14.12
2019-04-30T02:34:05.872Z,14.00
2019-04-30T02:35:05.822Z,13.88
2019-04-30T02:36:05.842Z,13.75
2019-04-30T02:37:05.973Z,13.62
2019-04-30T02:38:05.818Z,13.56
2019-04-30T02:39:05.877Z,13.69
2019-04-30T02:40:05.831Z,13.62
2019-04-30T02:41:05.820Z,13.56
2019-04-30T02:42:05.847Z,13.38
2019-04-30T02:43:10.276Z,13.25
2019-04-30T02:44:05.818Z,13.12
2019-04-30T02:45:05.842Z,13.12
2019-04-30T02:46:09.624Z,13.06
2019-04-30T02:47:05.852Z,12.94
2019-04-30T02:48:05.957Z,12.94
2019-04-30T02:49:05.826Z,12.88
2019-04-30T02:50:15.037Z,12.81
2019-04-30T02:51:05.855Z,12.94
2019-04-30T02:52:05.889Z,12.88
2019-04-30T02:53:06.483Z,13.00
2019-04-30T02:54:05.853Z,13.00
2019-04-30T02:55:05.861Z,13.31
2019-04-30T02:56:05.896Z,13.38
2019-04-30T02:57:05.838Z,13.50
2019-04-30T02:58:05.856Z,13.44
2019-04-30T02:59:05.891Z,13.25
2019-04-30T03:00:05.920Z,13.06
2019-04-30T03:01:05.873Z,13.06
2019-04-30T03:02:05.940Z,13.06
2019-04-30T03:03:05.997Z,12.94
2019-04-30T03:04:06.004Z,12.88
2019-04-30T03:05:05.822Z,12.75
2019-04-30T03:06:05.853Z,12.56
2019-04-30T03:07:05.876Z,12.50
2019-04-30T03:08:10.466Z,12.62
2019-04-30T03:09:05.864Z,12.50
2019-04-30T03:10:05.892Z,12.31
2019-04-30T03:11:05.832Z,12.31
2019-04-30T03:12:05.893Z,12.62
2019-04-30T03:13:05.867Z,12.62
2019-04-30T03:14:05.868Z,12.56
2019-04-30T03:15:06.233Z,12.62
2019-04-30T03:16:05.841Z,12.62
2019-04-30T03:17:05.859Z,12.69
2019-04-30T03:18:05.945Z,12.62
2019-04-30T03:19:05.862Z,12.81
2019-04-30T03:20:05.862Z,12.88
2019-04-30T03:21:05.857Z,12.75
2019-04-30T03:22:05.928Z,12.62
2019-04-30T03:23:05.863Z,13.19
2019-04-30T03:24:05.856Z,12.88
2019-04-30T03:25:05.989Z,12.88
2019-04-30T03:26:05.900Z,12.75
2019-04-30T03:27:05.864Z,12.75
2019-04-30T03:28:05.877Z,12.75
2019-04-30T03:29:05.876Z,12.81
2019-04-30T03:30:05.941Z,12.94
2019-04-30T03:31:05.876Z,12.88
2019-04-30T03:32:05.865Z,13.25
2019-04-30T03:33:05.911Z,13.44
2019-04-30T03:34:05.923Z,13.50
2019-04-30T03:35:05.878Z,14.00
2019-04-30T03:36:05.929Z,14.44
2019-04-30T03:37:05.885Z,14.75
2019-04-30T03:38:05.900Z,15.00
2019-04-30T03:39:05.852Z,15.50
2019-04-30T03:40:05.888Z,15.56
2019-04-30T03:41:05.887Z,15.81
2019-04-30T03:42:05.860Z,15.62
2019-04-30T03:43:05.867Z,15.25
2019-04-30T03:44:17.072Z,15.12
2019-04-30T03:45:05.905Z,15.25
2019-04-30T03:46:05.901Z,15.06
2019-04-30T03:47:05.901Z,15.12
2019-04-30T03:48:05.909Z,14.75
2019-04-30T03:49:05.913Z,14.44
2019-04-30T03:50:08.802Z,14.31
2019-04-30T03:51:05.996Z,14.00
2019-04-30T03:52:05.880Z,13.88
2019-04-30T03:53:05.928Z,14.00
2019-04-30T03:54:05.908Z,13.75
2019-04-30T03:55:05.909Z,13.62
2019-04-30T03:56:06.086Z,13.56
2019-04-30T03:57:05.898Z,13.50
2019-04-30T03:58:05.914Z,13.38
2019-04-30T03:59:06.073Z,13.31
2019-04-30T04:00:05.919Z,13.25
2019-04-30T04:01:05.936Z,13.06
2019-04-30T04:02:05.911Z,13.12
2019-04-30T04:03:05.923Z,13.06
2019-04-30T04:04:06.496Z,13.06
2019-04-30T04:05:05.881Z,13.00
2019-04-30T04:06:09.230Z,12.88
2019-04-30T04:07:05.904Z,12.81
2019-04-30T04:08:05.905Z,12.75
2019-04-30T04:09:05.946Z,12.69
2019-04-30T04:10:05.920Z,12.69
2019-04-30T04:11:05.893Z,12.56
2019-04-30T04:12:05.922Z,12.94
2019-04-30T04:13:05.897Z,12.94
2019-04-30T04:14:05.906Z,12.81
2019-04-30T04:15:05.945Z,12.88
2019-04-30T04:16:05.911Z,12.81
2019-04-30T04:17:05.918Z,13.12
2019-04-30T04:18:05.917Z,13.19
2019-04-30T04:19:05.932Z,13.19
2019-04-30T04:20:05.924Z,13.12
2019-04-30T04:21:11.242Z,13.06
2019-04-30T04:22:05.918Z,13.00
2019-04-30T04:23:05.919Z,13.06
2019-04-30T04:24:05.919Z,13.12
2019-04-30T04:25:06.233Z,13.12
2019-04-30T04:26:09.369Z,13.00
2019-04-30T04:27:05.925Z,13.00
2019-04-30T04:28:05.930Z,12.94
2019-04-30T04:29:05.908Z,13.00
2019-04-30T04:30:05.958Z,12.81
2019-04-30T04:31:05.926Z,12.75
2019-04-30T04:32:05.924Z,12.75
2019-04-30T04:33:05.943Z,12.75
2019-04-30T04:34:05.930Z,12.75
2019-04-30T04:35:05.959Z,12.75
2019-04-30T04:36:05.912Z,12.75
2019-04-30T04:37:06.140Z,12.75
2019-04-30T04:38:05.943Z,12.94
2019-04-30T04:39:05.916Z,13.06
2019-04-30T04:40:05.935Z,13.25
2019-04-30T04:41:05.939Z,13.38
2019-04-30T04:42:05.916Z,13.56
2019-04-30T04:43:05.955Z,13.69
2019-04-30T04:44:05.929Z,13.81
2019-04-30T04:45:05.951Z,13.75
2019-04-30T04:46:05.969Z,13.94
2019-04-30T04:47:05.940Z,14.06
2019-04-30T04:48:05.982Z,14.31
2019-04-30T04:49:05.968Z,14.75
2019-04-30T04:50:05.932Z,14.81
2019-04-30T04:51:05.949Z,15.00
2019-04-30T04:52:06.811Z,15.19
2019-04-30T04:53:07.851Z,15.38
2019-04-30T04:54:05.986Z,15.56
2019-04-30T04:55:06.141Z,15.75
2019-04-30T04:56:05.945Z,15.94
2019-04-30T04:57:14.681Z,16.06
2019-04-30T04:58:05.935Z,16.25
2019-04-30T04:59:06.001Z,16.44
2019-04-30T05:00:07.478Z,16.69
2019-04-30T05:01:05.953Z,17.00
2019-04-30T05:02:05.940Z,17.31
2019-04-30T05:03:06.572Z,17.69
2019-04-30T05:04:05.991Z,18.00
2019-04-30T05:05:05.992Z,18.44
2019-04-30T05:06:05.972Z,18.81
2019-04-30T05:07:05.956Z,19.19
2019-04-30T05:08:05.944Z,19.44
2019-04-30T05:09:05.998Z,19.69
2019-04-30T05:10:05.976Z,20.31
2019-04-30T05:11:05.964Z,20.38
2019-04-30T05:12:06.015Z,20.88
2019-04-30T05:13:05.953Z,21.44
2019-04-30T05:14:05.989Z,21.19
2019-04-30T05:15:05.977Z,21.81
2019-04-30T05:16:05.978Z,22.31
2019-04-30T05:17:05.969Z,22.75
2019-04-30T05:18:05.965Z,22.19
2019-04-30T05:19:05.975Z,22.81
2019-04-30T05:20:05.974Z,23.19
2019-04-30T05:21:05.991Z,23.50
2019-04-30T05:22:05.978Z,23.69
2019-04-30T05:23:06.041Z,23.81
2019-04-30T05:24:05.988Z,24.31
2019-04-30T05:25:05.987Z,24.38
2019-04-30T05:26:05.973Z,24.50
2019-04-30T05:27:05.981Z,24.88
2019-04-30T05:28:05.987Z,25.25
2019-04-30T05:29:05.959Z,25.50
2019-04-30T05:30:05.995Z,25.69
2019-04-30T05:31:05.992Z,25.94
2019-04-30T05:32:06.004Z,26.25
2019-04-30T05:33:05.992Z,26.50
2019-04-30T05:34:06.405Z,26.56
2019-04-30T05:35:05.976Z,26.62
2019-04-30T05:36:06.021Z,26.75
2019-04-30T05:37:05.977Z,26.88
2019-04-30T05:38:05.988Z,26.75
2019-04-30T05:39:06.014Z,26.56
2019-04-30T05:40:06.000Z,26.56
2019-04-30T05:41:06.005Z,26.81
2019-04-30T05:42:05.973Z,26.56
2019-04-30T05:43:11.289Z,26.88
2019-04-30T05:44:06.070Z,27.06
2019-04-30T05:45:06.001Z,26.94
2019-04-30T05:46:06.000Z,27.25
2019-04-30T05:47:05.993Z,27.25
2019-04-30T05:48:06.013Z,27.19
2019-04-30T05:49:06.041Z,27.12
2019-04-30T05:50:06.011Z,26.44
2019-04-30T05:51:06.033Z,26.75
2019-04-30T05:52:06.048Z,26.75
2019-04-30T05:53:06.011Z,26.81
2019-04-30T05:54:09.062Z,26.56
2019-04-30T05:55:06.020Z,26.69
2019-04-30T05:56:06.052Z,26.75
2019-04-30T05:57:06.001Z,26.62
2019-04-30T05:58:06.013Z,26.62
2019-04-30T05:59:06.012Z,26.56
2019-04-30T06:00:06.016Z,26.50
2019-04-30T06:01:06.022Z,26.06
2019-04-30T06:02:06.047Z,26.19
2019-04-30T06:03:06.023Z,26.12
2019-04-30T06:04:06.008Z,25.94
2019-04-30T06:05:06.072Z,25.69
2019-04-30T06:06:06.039Z,25.62
2019-04-30T06:07:06.023Z,25.44
2019-04-30T06:08:06.035Z,25.25
2019-04-30T06:09:08.018Z,25.06
2019-04-30T06:10:06.168Z,24.88
2019-04-30T06:11:06.029Z,24.75
2019-04-30T06:12:06.028Z,24.62
2019-04-30T06:13:06.062Z,24.62
2019-04-30T06:14:06.038Z,24.56
2019-04-30T06:15:06.061Z,24.38
2019-04-30T06:16:06.083Z,24.25
2019-04-30T06:17:06.035Z,24.25
2019-04-30T06:18:11.403Z,24.06
2019-04-30T06:19:06.028Z,23.94
2019-04-30T06:20:16.069Z,23.88
2019-04-30T06:21:06.043Z,23.88
2019-04-30T06:22:08.472Z,24.00
2019-04-30T06:23:06.029Z,24.06
2019-04-30T06:24:06.036Z,23.81
2019-04-30T06:25:06.896Z,23.75
2019-04-30T06:26:09.530Z,23.81
2019-04-30T06:27:06.078Z,23.88
2019-04-30T06:28:06.061Z,23.94
2019-04-30T06:29:06.089Z,23.88
2019-04-30T06:30:06.064Z,23.88
2019-04-30T06:31:06.062Z,23.62
2019-04-30T06:32:06.095Z,23.56
2019-04-30T06:33:06.041Z,23.44
2019-04-30T06:34:06.040Z,23.56
2019-04-30T06:35:06.071Z,23.56
2019-04-30T06:36:06.036Z,23.56
2019-04-30T06:37:06.047Z,23.50
2019-04-30T06:38:06.069Z,23.50
2019-04-30T06:39:06.075Z,23.62
2019-04-30T06:40:06.050Z,23.88
2019-04-30T06:41:06.105Z,23.88
2019-04-30T06:42:08.888Z,23.81
2019-04-30T06:43:10.470Z,23.69
2019-04-30T06:44:06.062Z,23.69
2019-04-30T06:45:06.043Z,23.56
2019-04-30T06:46:06.045Z,23.44
2019-04-30T06:47:06.119Z,23.44
2019-04-30T06:48:06.095Z,23.44
2019-04-30T06:49:06.047Z,23.50
2019-04-30T06:50:06.121Z,23.56
2019-04-30T06:51:06.060Z,23.56
2019-04-30T06:52:18.101Z,23.50
2019-04-30T06:53:06.048Z,23.44
2019-04-30T06:54:06.037Z,23.56
2019-04-30T06:55:06.075Z,23.44
2019-04-30T06:56:08.794Z,23.50
2019-04-30T06:57:06.069Z,23.31
2019-04-30T06:58:12.675Z,23.44
2019-04-30T06:59:06.061Z,23.44
2019-04-30T07:00:06.093Z,23.44
2019-04-30T07:01:06.058Z,23.38
2019-04-30T07:02:06.079Z,23.38
2019-04-30T07:03:06.085Z,23.38
2019-04-30T07:04:06.055Z,23.38
2019-04-30T07:05:06.081Z,23.44
2019-04-30T07:06:06.093Z,23.69
2019-04-30T07:07:14.240Z,23.56
2019-04-30T07:08:09.737Z,23.50
2019-04-30T07:09:06.090Z,23.44
2019-04-30T07:10:10.034Z,23.25
2019-04-30T07:11:08.412Z,22.81
2019-04-30T07:12:06.089Z,22.75
2019-04-30T07:13:06.097Z,22.62
2019-04-30T07:14:06.098Z,22.12
2019-04-30T07:15:06.081Z,22.06
2019-04-30T07:16:06.102Z,22.25
2019-04-30T07:17:06.073Z,22.38
2019-04-30T07:18:06.055Z,22.25
2019-04-30T07:19:06.083Z,22.38
2019-04-30T07:20:06.101Z,22.31
2019-04-30T07:21:06.085Z,22.38
2019-04-30T07:22:06.072Z,22.50
2019-04-30T07:23:06.075Z,22.56
2019-04-30T07:24:06.074Z,22.50
2019-04-30T07:25:06.133Z,22.62
2019-04-30T07:26:06.079Z,22.69
2019-04-30T07:27:06.094Z,22.81
2019-04-30T07:28:06.075Z,22.94
2019-04-30T07:29:06.124Z,22.94
2019-04-30T07:30:06.089Z,22.94
2019-04-30T07:31:11.216Z,22.81
2019-04-30T07:32:06.087Z,22.81
2019-04-30T07:33:06.088Z,23.06
2019-04-30T07:34:06.075Z,23.12
2019-04-30T07:35:06.124Z,23.25
2019-04-30T07:36:06.078Z,23.19
2019-04-30T07:37:13.930Z,23.19
2019-04-30T07:38:06.106Z,23.19
2019-04-30T07:39:06.099Z,23.00
2019-04-30T07:40:06.101Z,23.25
2019-04-30T07:41:06.101Z,23.12
2019-04-30T07:42:06.163Z,23.00
2019-04-30T07:43:10.722Z,23.00
2019-04-30T07:44:06.137Z,23.12
2019-04-30T07:45:06.133Z,23.31
2019-04-30T07:46:06.110Z,23.38
2019-04-30T07:47:06.100Z,23.44
2019-04-30T07:48:06.110Z,23.44
2019-04-30T07:49:06.091Z,23.38
2019-04-30T07:50:06.330Z,23.31
2019-04-30T07:51:06.323Z,23.19
2019-04-30T07:52:06.736Z,23.31
2019-04-30T07:53:06.900Z,23.12
2019-04-30T07:54:06.155Z,23.25
2019-04-30T07:55:06.164Z,23.19
2019-04-30T07:56:21.905Z,23.25
2019-04-30T07:57:06.224Z,23.31
2019-04-30T07:58:06.116Z,23.19
2019-04-30T07:59:06.098Z,23.06
2019-04-30T08:00:06.129Z,23.00
2019-04-30T08:01:06.105Z,22.94
2019-04-30T08:02:12.090Z,22.75
2019-04-30T08:03:06.342Z,22.44
2019-04-30T08:04:06.140Z,22.19
2019-04-30T08:05:06.120Z,22.19
2019-04-30T08:06:06.211Z,22.12
2019-04-30T08:07:06.204Z,22.12
2019-04-30T08:08:17.548Z,22.06
2019-04-30T08:09:06.208Z,22.06
2019-04-30T08:10:06.152Z,22.25
2019-04-30T08:11:06.176Z,22.38
2019-04-30T08:12:06.196Z,22.50
2019-04-30T08:13:09.963Z,22.56
2019-04-30T08:14:06.327Z,22.81
2019-04-30T08:15:10.528Z,22.81
2019-04-30T08:16:06.116Z,22.69
2019-04-30T08:17:06.134Z,22.69
2019-04-30T08:18:06.154Z,22.81
2019-04-30T08:19:06.126Z,22.69
2019-04-30T08:20:06.170Z,22.62
2019-04-30T08:21:06.113Z,22.69
2019-04-30T08:22:06.141Z,22.88
2019-04-30T08:23:13.984Z,23.06
2019-04-30T08:24:06.125Z,23.00
2019-04-30T08:25:06.147Z,22.88
2019-04-30T08:26:06.118Z,22.94
2019-04-30T08:27:06.198Z,22.75
2019-04-30T08:28:08.891Z,22.44
2019-04-30T08:29:06.167Z,22.44
2019-04-30T08:30:17.964Z,22.44
2019-04-30T08:31:06.140Z,22.31
2019-04-30T08:32:06.288Z,22.00
2019-04-30T08:33:06.156Z,22.00
2019-04-30T08:34:06.146Z,22.00
2019-04-30T08:35:06.149Z,22.00
2019-04-30T08:36:06.147Z,22.06
2019-04-30T08:37:13.526Z,22.06
2019-04-30T08:38:06.162Z,22.12
2019-04-30T08:39:06.151Z,22.12
2019-04-30T08:40:06.163Z,22.31
2019-04-30T08:41:06.142Z,22.19
2019-04-30T08:42:06.162Z,22.12
2019-04-30T08:43:10.815Z,22.00
2019-04-30T08:44:06.176Z,22.06
2019-04-30T08:45:06.155Z,21.88
2019-04-30T08:46:06.167Z,21.50
2019-04-30T08:47:06.162Z,21.38
2019-04-30T08:48:06.149Z,20.94
2019-04-30T08:49:06.373Z,20.38
2019-04-30T08:50:06.183Z,20.31
2019-04-30T08:51:06.167Z,20.38
2019-04-30T08:52:06.174Z,20.69
2019-04-30T08:53:06.202Z,20.81
2019-04-30T08:54:06.174Z,20.88
2019-04-30T08:55:13.881Z,20.75
2019-04-30T08:56:06.201Z,20.75
2019-04-30T08:57:06.203Z,20.81
2019-04-30T08:58:09.740Z,20.94
2019-04-30T08:59:06.188Z,21.12
2019-04-30T09:00:06.192Z,21.00
2019-04-30T09:01:06.190Z,21.19
2019-04-30T09:02:13.463Z,21.25
2019-04-30T09:03:06.211Z,21.25
2019-04-30T09:04:07.652Z,21.31
2019-04-30T09:05:06.193Z,21.31
2019-04-30T09:06:06.194Z,20.88
2019-04-30T09:07:06.197Z,21.00
2019-04-30T09:08:06.193Z,20.75
2019-04-30T09:09:06.179Z,20.50
2019-04-30T09:10:06.200Z,20.50
2019-04-30T09:11:06.195Z,20.62
2019-04-30T09:12:06.172Z,20.75
2019-04-30T09:13:06.184Z,21.00
2019-04-30T09:14:06.250Z,21.00
2019-04-30T09:15:06.192Z,20.88
2019-04-30T09:16:06.209Z,20.88
2019-04-30T09:17:06.197Z,21.00
2019-04-30T09:18:10.155Z,20.94
2019-04-30T09:19:06.220Z,20.75
2019-04-30T09:20:06.217Z,20.75
2019-04-30T09:21:06.527Z,20.31
2019-04-30T09:22:13.013Z,20.00
2019-04-30T09:23:06.184Z,19.94
2019-04-30T09:24:06.203Z,20.19
2019-04-30T09:25:06.190Z,20.12
2019-04-30T09:26:06.188Z,20.06
2019-04-30T09:27:06.185Z,20.00
2019-04-30T09:28:06.204Z,20.12
2019-04-30T09:29:06.202Z,20.12
2019-04-30T09:30:06.224Z,20.44
2019-04-30T09:31:06.219Z,20.62
2019-04-30T09:32:06.195Z,20.56
2019-04-30T09:33:06.280Z,20.50
2019-04-30T09:34:15.017Z,20.44
2019-04-30T09:35:07.346Z,20.44
2019-04-30T09:36:06.215Z,20.19
2019-04-30T09:37:06.188Z,20.00
2019-04-30T09:38:06.243Z,19.81
2019-04-30T09:39:06.239Z,19.94
2019-04-30T09:40:16.000Z,19.94
2019-04-30T09:41:06.229Z,20.00
2019-04-30T09:42:06.203Z,19.81
2019-04-30T09:43:10.833Z,19.81
2019-04-30T09:44:06.216Z,19.69
2019-04-30T09:45:08.752Z,19.62
2019-04-30T09:46:16.169Z,19.69
2019-04-30T09:47:06.218Z,19.88
2019-04-30T09:48:06.247Z,19.94
2019-04-30T09:49:06.217Z,19.88
2019-04-30T09:50:06.223Z,20.00
2019-04-30T09:51:06.463Z,20.06
2019-04-30T09:52:06.249Z,20.38
2019-04-30T09:53:06.238Z,20.50
2019-04-30T09:54:06.531Z,20.56
2019-04-30T09:55:06.366Z,20.62
2019-04-30T09:56:06.278Z,20.75
2019-04-30T09:57:06.217Z,20.75
2019-04-30T09:58:14.809Z,20.81
2019-04-30T09:59:06.248Z,20.81
2019-04-30T10:00:06.238Z,20.88
2019-04-30T10:01:06.303Z,20.88
2019-04-30T10:02:08.999Z,21.00
2019-04-30T10:03:06.397Z,20.94
2019-04-30T10:04:06.367Z,20.44
2019-04-30T10:05:06.785Z,20.44
2019-04-30T10:06:06.266Z,20.44
2019-04-30T10:07:06.243Z,20.56
2019-04-30T10:08:06.255Z,20.62
2019-04-30T10:09:09.600Z,20.75
2019-04-30T10:10:08.754Z,20.88
2019-04-30T10:11:06.250Z,21.00
2019-04-30T10:12:06.301Z,21.00
2019-04-30T10:13:06.260Z,21.19
2019-04-30T10:14:06.263Z,21.19
2019-04-30T10:15:06.237Z,21.06
2019-04-30T10:16:06.269Z,21.00
2019-04-30T10:17:09.504Z,21.06
2019-04-30T10:18:06.247Z,21.00
2019-04-30T10:19:06.246Z,21.00
2019-04-30T10:20:06.272Z,21.00
2019-04-30T10:21:06.252Z,21.12
2019-04-30T10:22:06.244Z,21.38
2019-04-30T10:23:06.293Z,21.31
2019-04-30T10:24:12.953Z,21.19
2019-04-30T10:25:06.258Z,21.19
2019-04-30T10:26:06.235Z,21.25
2019-04-30T10:27:07.755Z,21.31
2019-04-30T10:28:06.292Z,21.44
2019-04-30T10:29:06.290Z,21.44
2019-04-30T10:30:06.281Z,21.62
2019-04-30T10:31:06.243Z,21.50
2019-04-30T10:32:06.286Z,21.25
2019-04-30T10:33:06.303Z,21.12
2019-04-30T10:34:06.282Z,21.06
2019-04-30T10:35:06.244Z,21.00
2019-04-30T10:36:06.488Z,20.81
2019-04-30T10:37:06.257Z,20.75
2019-04-30T10:38:06.291Z,20.81
2019-04-30T10:39:06.262Z,20.75
2019-04-30T10:40:06.310Z,20.75
2019-04-30T10:41:06.280Z,20.94
2019-04-30T10:42:06.311Z,20.88
2019-04-30T10:43:10.833Z,20.81
2019-04-30T10:44:08.855Z,20.75
2019-04-30T10:45:06.276Z,20.69
2019-04-30T10:46:06.302Z,20.62
2019-04-30T10:47:06.273Z,20.75
2019-04-30T10:48:06.304Z,20.69
2019-04-30T10:49:09.014Z,20.50
2019-04-30T10:50:06.671Z,20.62
2019-04-30T10:51:06.633Z,20.69
2019-04-30T10:52:06.602Z,20.69
2019-04-30T10:53:06.421Z,20.69
2019-04-30T10:54:06.803Z,20.62
2019-04-30T10:55:06.518Z,20.81
2019-04-30T10:56:06.534Z,20.62
2019-04-30T10:57:08.249Z,20.50
2019-04-30T10:58:06.708Z,20.38
2019-04-30T10:59:06.471Z,20.31
2019-04-30T11:00:07.788Z,20.19
2019-04-30T11:01:06.591Z,20.19
2019-04-30T11:02:06.469Z,20.50
2019-04-30T11:03:17.033Z,20.44
2019-04-30T11:04:06.627Z,20.38
2019-04-30T11:05:06.887Z,20.19
2019-04-30T11:06:08.540Z,20.19
2019-04-30T11:07:08.208Z,20.31
2019-04-30T11:08:06.838Z,20.31
2019-04-30T11:09:06.676Z,19.94
2019-04-30T11:10:08.649Z,19.75
2019-04-30T11:11:06.413Z,19.56
2019-04-30T11:12:06.482Z,19.31
2019-04-30T11:13:06.419Z,19.12
2019-04-30T11:14:07.140Z,18.88
2019-04-30T11:15:06.547Z,18.75
2019-04-30T11:16:12.360Z,18.69
2019-04-30T11:17:06.753Z,18.88
2019-04-30T11:18:06.586Z,19.06
2019-04-30T11:19:06.714Z,19.12
2019-04-30T11:20:06.592Z,19.19
2019-04-30T11:21:09.447Z,19.31
2019-04-30T11:22:06.744Z,19.38
2019-04-30T11:23:14.058Z,19.56
2019-04-30T11:24:06.554Z,19.50
2019-04-30T11:25:06.665Z,19.12
2019-04-30T11:26:06.860Z,18.94
2019-04-30T11:27:06.683Z,18.69
2019-04-30T11:28:06.886Z,18.69
2019-04-30T11:29:06.718Z,18.62
2019-04-30T11:30:18.349Z,18.62
2019-04-30T11:31:07.177Z,18.69
2019-04-30T11:32:06.637Z,18.94
2019-04-30T11:33:06.965Z,19.00
2019-04-30T11:34:06.462Z,19.06
2019-04-30T11:35:06.573Z,19.06
2019-04-30T11:36:06.371Z,19.00
2019-04-30T11:37:06.511Z,19.06
2019-04-30T11:38:06.460Z,19.12
2019-04-30T11:39:06.383Z,19.50
2019-04-30T11:40:06.505Z,19.69
2019-04-30T11:41:08.563Z,19.69
2019-04-30T11:42:06.926Z,19.69
2019-04-30T11:43:06.674Z,20.00
2019-04-30T11:44:06.502Z,20.12
2019-04-30T11:45:08.453Z,20.19
2019-04-30T11:46:06.913Z,20.38
2019-04-30T11:47:06.566Z,20.19
2019-04-30T11:48:06.687Z,20.12
2019-04-30T11:49:06.442Z,20.19
2019-04-30T11:50:06.512Z,20.12
2019-04-30T11:51:06.504Z,19.81
2019-04-30T11:52:06.461Z,19.62
2019-04-30T11:53:20.230Z,19.31
2019-04-30T11:54:06.496Z,19.44
2019-04-30T11:55:06.480Z,19.62
2019-04-30T11:56:06.486Z,19.50
2019-04-30T11:57:08.699Z,19.19
2019-04-30T11:58:06.392Z,19.12
2019-04-30T11:59:08.518Z,18.94
2019-04-30T12:00:08.501Z,18.88
2019-04-30T12:01:06.498Z,19.00
2019-04-30T12:02:07.862Z,19.31
2019-04-30T12:03:06.621Z,19.44
2019-04-30T12:04:07.204Z,19.06
2019-04-30T12:05:07.007Z,18.88
2019-04-30T12:06:06.443Z,18.81
2019-04-30T12:07:06.504Z,18.88
2019-04-30T12:08:06.483Z,18.69
2019-04-30T12:09:06.853Z,18.38
2019-04-30T12:10:06.617Z,18.31
2019-04-30T12:11:06.562Z,18.38
2019-04-30T12:12:08.972Z,18.56
2019-04-30T12:13:06.629Z,18.44
2019-04-30T12:14:06.584Z,18.62
2019-04-30T12:15:06.655Z,18.69
2019-04-30T12:16:08.558Z,18.62
2019-04-30T12:17:06.751Z,18.75
2019-04-30T12:18:06.901Z,18.38
2019-04-30T12:19:08.841Z,18.38
2019-04-30T12:20:08.590Z,18.38
2019-04-30T12:21:07.252Z,18.75
2019-04-30T12:22:07.090Z,18.81
2019-04-30T12:23:11.381Z,18.69
2019-04-30T12:24:06.631Z,18.56
2019-04-30T12:25:06.569Z,18.44
2019-04-30T12:26:06.437Z,18.38
2019-04-30T12:27:06.377Z,18.38
2019-04-30T12:28:06.333Z,18.62
2019-04-30T12:29:06.343Z,18.56
2019-04-30T12:30:06.331Z,18.69
2019-04-30T12:31:06.338Z,18.56
2019-04-30T12:32:06.324Z,18.44
2019-04-30T12:33:06.351Z,18.31
2019-04-30T12:34:06.312Z,18.44
2019-04-30T12:35:06.348Z,18.50
2019-04-30T12:36:06.537Z,18.56
2019-04-30T12:37:06.335Z,18.56
2019-04-30T12:38:06.356Z,18.94
2019-04-30T12:39:06.341Z,19.00
2019-04-30T12:40:06.343Z,19.19
2019-04-30T12:41:06.342Z,19.31
2019-04-30T12:42:06.347Z,19.38
2019-04-30T12:43:10.726Z,19.44
2019-04-30T12:44:06.349Z,19.56
2019-04-30T12:45:06.339Z,19.38
2019-04-30T12:46:06.336Z,19.38
2019-04-30T12:47:06.393Z,19.06
2019-04-30T12:48:06.387Z,18.94
2019-04-30T12:49:06.358Z,18.81
2019-04-30T12:50:06.373Z,18.88
2019-04-30T12:51:06.374Z,19.00
2019-04-30T12:52:06.371Z,19.06